Time;durP1;ratioP1;P1;durP2;ratioP2;P2;SDS_P1;SDS_P2;PMS_P1;PMS_P2;Temp;Humidity;BMP_temperature;BMP_pressure;BME280_temperature;BME280_humidity;BME280_pressure;Samples;Min_cycle;Max_cycle;Signal;HPM_P1;HPM_P2
2022/05/16 00:00:14;;;;;;;14.13;4.00;;;22.00;58.00;;;;;;5065871;28;20395;-71
2022/05/16 00:02:40;;;;;;;15.47;4.10;;;22.00;58.10;;;;;;5067865;28;20431;-69
2022/05/16 00:05:07;;;;;;;15.90;4.20;;;22.00;58.40;;;;;;5068284;28;20520;-68
2022/05/16 00:07:32;;;;;;;12.85;4.03;;;21.90;58.40;;;;;;5065835;28;20469;-69
2022/05/16 00:09:58;;;;;;;13.93;4.47;;;21.90;58.80;;;;;;5068379;28;20411;-69
2022/05/16 00:12:24;;;;;;;13.55;4.15;;;21.80;59.00;;;;;;5068422;28;20407;-69
2022/05/16 00:14:50;;;;;;;14.57;4.20;;;21.80;59.10;;;;;;5069264;28;20400;-68
2022/05/16 00:17:16;;;;;;;10.32;3.97;;;21.80;59.40;;;;;;5068034;28;20462;-67
2022/05/16 00:19:42;;;;;;;14.02;4.13;;;21.70;59.40;;;;;;5069517;28;20418;-71
2022/05/16 00:22:09;;;;;;;12.45;3.95;;;21.70;59.60;;;;;;5063951;28;20410;-69
2022/05/16 00:24:38;;;;;;;15.95;4.78;;;21.70;59.80;;;;;;5063610;28;20459;-69
2022/05/16 00:27:04;;;;;;;13.43;4.18;;;21.70;60.10;;;;;;5067370;28;20403;-69
2022/05/16 00:29:30;;;;;;;15.00;4.10;;;21.60;60.30;;;;;;5051400;28;20410;-70
2022/05/16 00:31:56;;;;;;;12.23;4.18;;;21.60;60.40;;;;;;5050103;28;20439;-73
2022/05/16 00:34:22;;;;;;;14.32;4.30;;;21.60;60.70;;;;;;5068151;28;20486;-70
2022/05/16 00:36:48;;;;;;;18.83;4.25;;;21.50;60.80;;;;;;5067371;28;20408;-70
2022/05/16 00:39:15;;;;;;;12.93;4.23;;;21.50;60.70;;;;;;5068517;28;20419;-73
2022/05/16 00:41:42;;;;;;;13.23;4.40;;;21.50;60.80;;;;;;5067838;28;20430;-68
2022/05/16 00:44:08;;;;;;;13.05;4.03;;;21.40;61.10;;;;;;5070326;28;20403;-68
2022/05/16 00:46:34;;;;;;;15.67;4.20;;;21.40;61.40;;;;;;5067966;28;20512;-67
2022/05/16 00:49:01;;;;;;;14.27;4.10;;;21.40;61.60;;;;;;5068296;28;20749;-70
2022/05/16 00:51:58;;;;;;;14.40;4.20;;;21.40;61.60;;;;;;5064366;28;20419;-70
2022/05/16 00:54:30;;;;;;;14.50;4.23;;;21.40;61.60;;;;;;5067447;28;20474;-68
2022/05/16 00:57:02;;;;;;;11.73;4.07;;;21.30;61.90;;;;;;5065613;28;20951;-67
2022/05/16 01:00:06;;;;;;;13.98;4.25;;;21.30;62.00;;;;;;5068472;28;20981;-69
2022/05/16 01:05:22;;;;;;;16.93;4.37;;;21.20;62.20;;;;;;5066517;28;20413;-71
2022/05/16 01:07:48;;;;;;;13.10;4.40;;;21.20;62.20;;;;;;5068175;28;20517;-71
2022/05/16 01:10:20;;;;;;;13.90;4.10;;;21.20;62.40;;;;;;5062423;28;20417;-70
2022/05/16 01:12:48;;;;;;;19.60;4.57;;;21.10;62.60;;;;;;5066746;28;20410;-71
2022/05/16 01:15:25;;;;;;;14.13;3.95;;;21.10;62.80;;;;;;5065517;28;20409;-70
2022/05/16 01:17:51;;;;;;;15.73;4.30;;;21.00;62.70;;;;;;5067268;28;20403;-71
2022/05/16 01:20:16;;;;;;;13.30;3.80;;;21.00;63.10;;;;;;5064995;28;20417;-69
2022/05/16 01:22:46;;;;;;;14.70;4.20;;;20.90;63.20;;;;;;5049867;28;20411;-70
2022/05/16 01:25:17;;;;;;;13.38;4.10;;;20.90;63.50;;;;;;5064784;28;20414;-68
2022/05/16 01:27:55;;;;;;;15.18;4.53;;;20.90;63.70;;;;;;5068984;28;20424;-67
2022/05/16 01:30:30;;;;;;;10.48;3.72;;;20.80;64.00;;;;;;5064795;28;20416;-69
2022/05/16 01:32:56;;;;;;;14.68;4.10;;;20.80;64.30;;;;;;5066921;28;20403;-70
2022/05/16 01:35:25;;;;;;;16.42;4.30;;;20.80;64.50;;;;;;5064846;28;20915;-69
2022/05/16 01:40:37;;;;;;;14.88;4.40;;;20.70;64.80;;;;;;5067515;28;20407;-69
2022/05/16 01:43:03;;;;;;;14.73;4.50;;;20.70;65.10;;;;;;5068758;28;20400;-68
2022/05/16 01:45:30;;;;;;;15.43;4.18;;;20.60;65.20;;;;;;5064531;28;20439;-66
2022/05/16 01:47:56;;;;;;;15.23;4.32;;;20.60;65.50;;;;;;5065436;28;20404;-68
2022/05/16 01:50:22;;;;;;;12.63;3.90;;;20.60;65.60;;;;;;5067046;28;20416;-67
2022/05/16 01:52:47;;;;;;;16.23;4.20;;;20.50;65.70;;;;;;5068647;28;20765;-68
2022/05/16 01:55:14;;;;;;;12.98;4.35;;;20.50;65.90;;;;;;5063195;28;20665;-66
2022/05/16 01:57:39;;;;;;;14.20;4.60;;;20.50;66.00;;;;;;5066034;28;20423;-69
2022/05/16 02:00:09;;;;;;;15.18;4.20;;;20.50;66.10;;;;;;5061630;28;20498;-66
2022/05/16 02:02:39;;;;;;;16.33;4.38;;;20.50;66.30;;;;;;5065899;28;20399;-68
2022/05/16 02:05:05;;;;;;;13.30;4.13;;;20.50;66.50;;;;;;5067392;28;20777;-68
2022/05/16 02:07:31;;;;;;;11.13;4.10;;;20.40;66.50;;;;;;5050046;28;20407;-69
2022/05/16 04:47:17;;;;;;;;;;;19.60;70.60;;;;;;5074551;27;1902565;-70
2022/05/16 04:49:43;;;;;;;;;;;19.60;71.10;;;;;;5137682;27;19911;-69
2022/05/16 04:52:11;;;;;;;;;;;19.60;71.00;;;;;;5137010;27;20360;-69
2022/05/16 04:54:37;;;;;;;;;;;19.70;70.90;;;;;;5136907;27;19911;-67
2022/05/16 04:57:02;;;;;;;;;;;19.70;71.00;;;;;;5130951;27;19911;-68
2022/05/16 04:59:28;;;;;;;;;;;19.70;71.00;;;;;;5128151;27;19917;-67
2022/05/16 05:01:53;;;;;;;;;;;19.80;71.10;;;;;;5132100;27;19911;-68
2022/05/16 05:04:20;;;;;;;;;;;19.80;70.70;;;;;;5136568;27;19915;-68
2022/05/16 05:06:47;;;;;;;;;;;19.90;70.60;;;;;;5135660;27;20010;-68
2022/05/16 05:09:12;;;;;;;;;;;19.90;70.40;;;;;;5130870;27;20280;-68
2022/05/16 05:14:33;;;;;;;;;;;20.00;70.70;;;;;;5375933;23;20004;-67
2022/05/16 05:17:03;;;;;;;;;;;20.10;70.60;;;;;;4906685;29;20376;-67
2022/05/16 05:19:29;;;;;;;;;;;20.10;70.50;;;;;;4905921;29;20280;-69
2022/05/16 05:21:54;;;;;;;;;;;20.10;70.50;;;;;;4910022;29;19944;-70
2022/05/16 05:24:20;;;;;;;;;;;20.20;70.20;;;;;;4908887;29;20014;-68
2022/05/16 05:26:47;;;;;;;;;;;20.20;70.00;;;;;;4909061;29;19923;-69
2022/05/16 05:29:16;;;;;;;;;;;20.20;69.90;;;;;;4888838;29;19934;-68
2022/05/16 05:35:31;;;;;;;;;;;20.30;70.10;;;;;;4786947;29;20504;-69
2022/05/16 05:37:56;;;;;;;;;;;20.50;70.30;;;;;;4833662;29;19920;-70
2022/05/16 05:40:22;;;;;;;;;;;20.50;70.10;;;;;;4832130;29;19925;-69
2022/05/16 05:42:49;;;;;;;;;;;20.60;70.10;;;;;;4833083;29;19921;-70
2022/05/16 05:45:15;;;;;;;;;;;20.70;70.00;;;;;;4832775;29;20334;-69
2022/05/16 05:47:41;;;;;;;;;;;20.70;70.10;;;;;;4831793;29;19928;-68
2022/05/16 05:50:07;;;;;;;;;;;20.80;69.90;;;;;;4831501;29;20366;-70
2022/05/16 05:52:32;;;;;;;;;;;20.80;69.30;;;;;;4828567;29;19928;-68
2022/05/16 05:54:58;;;;;;;;;;;20.90;69.30;;;;;;4845011;29;19925;-70
2022/05/16 05:57:25;;;;;;;;;;;21.00;69.10;;;;;;4823501;29;20001;-67
2022/05/16 05:59:52;;;;;;;;;;;21.00;69.20;;;;;;4818110;29;20282;-69
2022/05/16 06:02:17;;;;;;;;;;;21.00;69.10;;;;;;4817628;29;20003;-68
2022/05/16 06:04:43;;;;;;;;;;;21.10;67.60;;;;;;4819831;29;20446;-69
2022/05/16 06:07:08;;;;;;;;;;;21.10;67.00;;;;;;4802737;29;19949;-69
2022/05/16 06:09:34;;;;;;;;;;;21.10;66.90;;;;;;4817489;29;19981;-69
2022/05/16 06:12:00;;;;;;;;;;;21.20;67.10;;;;;;4836077;29;20376;-68
2022/05/16 06:14:26;;;;;;;;;;;21.20;67.30;;;;;;4893260;29;20006;-68
2022/05/16 06:16:52;;;;;;;;;;;21.30;67.40;;;;;;4895617;29;19920;-69
2022/05/16 06:19:17;;;;;;;;;;;21.30;66.80;;;;;;4894446;29;19919;-69
2022/05/16 06:21:43;;;;;;;;;;;21.40;66.60;;;;;;4894972;29;19951;-67
2022/05/16 06:26:52;;;;;;;;;;;21.40;66.50;;;;;;4896349;29;19924;-68
2022/05/16 06:29:18;;;;;;;;;;;21.40;66.50;;;;;;4864726;29;19927;-68
2022/05/16 06:31:44;;;;;;;;;;;21.40;66.50;;;;;;4894921;29;19926;-69
2022/05/16 06:34:09;;;;;;;;;;;21.40;66.10;;;;;;4893872;29;19922;-68
2022/05/16 06:36:35;;;;;;;;;;;21.50;66.00;;;;;;4895158;29;19967;-69
2022/05/16 06:39:00;;;;;;;;;;;21.50;66.50;;;;;;4894039;29;19915;-67
2022/05/16 06:41:26;;;;;;;;;;;21.60;66.10;;;;;;4878004;29;19919;-69
2022/05/16 06:43:51;;;;;;;;;;;21.60;66.00;;;;;;4894199;29;19916;-69
2022/05/16 06:46:17;;;;;;;;;;;21.60;65.60;;;;;;4882323;29;19930;-68
2022/05/16 06:48:42;;;;;;;;;;;21.60;65.30;;;;;;4893555;29;19926;-68
2022/05/16 06:51:08;;;;;;;;;;;21.60;65.40;;;;;;4893910;29;19924;-66
2022/05/16 06:53:33;;;;;;;;;;;21.60;66.30;;;;;;4895622;29;19923;-68
2022/05/16 06:56:00;;;;;;;;;;;21.60;66.50;;;;;;4866320;29;19979;-68
2022/05/16 06:58:26;;;;;;;;;;;21.60;66.70;;;;;;4893140;29;19916;-69
2022/05/16 07:00:52;;;;;;;;;;;21.50;66.40;;;;;;4893246;29;20069;-68
2022/05/16 07:03:17;;;;;;;;;;;21.50;66.90;;;;;;4895036;29;20380;-67
2022/05/16 07:05:43;;;;;;;;;;;21.50;67.50;;;;;;4892483;29;20387;-67
2022/05/16 07:08:09;;;;;;;;;;;21.40;67.60;;;;;;4893473;29;19958;-67
2022/05/16 07:10:34;;;;;;;;;;;21.40;68.10;;;;;;4893002;29;19934;-68
2022/05/16 07:13:00;;;;;;;;;;;21.50;68.40;;;;;;4894645;29;19919;-68
2022/05/16 07:15:26;;;;;;;;;;;21.50;69.40;;;;;;4892526;29;19928;-68
2022/05/16 07:17:51;;;;;;;;;;;21.50;68.90;;;;;;4892971;29;19920;-68
2022/05/16 07:20:18;;;;;;;;;;;21.50;68.80;;;;;;4893903;29;19919;-68
2022/05/16 07:22:50;;;;;;;;;;;21.50;68.80;;;;;;4894481;29;19927;-67
2022/05/16 07:25:17;;;;;;;;;;;21.60;68.50;;;;;;4893675;29;19923;-69
2022/05/16 07:27:59;;;;;;;;;;;21.60;68.60;;;;;;4893943;29;19915;-67
2022/05/16 07:30:29;;;;;;;;;;;21.70;68.50;;;;;;4874630;29;20612;-68
2022/05/16 07:32:55;;;;;;;;;;;21.90;68.20;;;;;;4894073;29;20360;-69
2022/05/16 07:35:23;;;;;;;;;;;22.00;67.80;;;;;;4878279;29;20002;-69
2022/05/16 07:37:49;;;;;;;;;;;22.20;67.00;;;;;;4888907;29;20022;-69
2022/05/16 07:40:16;;;;;;;;;;;22.30;66.40;;;;;;4893570;29;20014;-69
2022/05/16 07:42:41;;;;;;;;;;;22.40;65.90;;;;;;4873767;29;19981;-69
2022/05/16 07:45:07;;;;;;;;;;;22.50;65.70;;;;;;4877864;29;19923;-69
2022/05/16 07:47:33;;;;;;;;;;;22.60;65.30;;;;;;4889189;29;19971;-70
2022/05/16 07:49:59;;;;;;;;;;;22.60;65.40;;;;;;4891244;29;19930;-69
2022/05/16 07:52:26;;;;;;;;;;;22.60;65.30;;;;;;4889705;29;19919;-68
2022/05/16 07:54:51;;;;;;;;;;;22.60;65.50;;;;;;4894357;29;19955;-69
2022/05/16 07:57:17;;;;;;;;;;;22.70;65.80;;;;;;4894238;29;19962;-67
2022/05/16 07:59:43;;;;;;;;;;;22.70;65.70;;;;;;4873455;29;19946;-66
2022/05/16 08:02:09;;;;;;;;;;;22.60;65.80;;;;;;4890644;29;19919;-67
2022/05/16 08:04:34;;;;;;;;;;;22.60;66.00;;;;;;4880070;29;20407;-67
2022/05/16 08:07:04;;;;;;;;;;;22.70;65.70;;;;;;4874931;29;20304;-69
2022/05/16 08:12:14;;;;;;;;;;;22.60;66.50;;;;;;4890259;29;19923;-67
2022/05/16 08:14:43;;;;;;;;;;;22.60;66.40;;;;;;4893241;29;19989;-67
2022/05/16 08:17:09;;;;;;;;;;;22.60;66.80;;;;;;4892311;29;19919;-66
2022/05/16 08:19:36;;;;;;;;;;;22.60;67.00;;;;;;4892446;29;19967;-68
2022/05/16 08:22:01;;;;;;;;;;;22.60;67.00;;;;;;4893145;29;20412;-68
2022/05/16 08:24:28;;;;;;;;;;;22.70;67.00;;;;;;4893581;29;19920;-68
2022/05/16 08:26:53;;;;;;;;;;;22.70;67.00;;;;;;4893228;29;19927;-68
2022/05/16 08:29:19;;;;;;;;;;;22.80;66.90;;;;;;4886390;29;20265;-68
2022/05/16 08:31:44;;;;;;;;;;;23.00;66.60;;;;;;4875997;29;19923;-69
2022/05/16 08:34:10;;;;;;;;;;;23.20;65.90;;;;;;4894118;29;19920;-68
2022/05/16 08:42:08;;;;;;;;;;;23.40;65.60;;;;;;4890933;29;20016;-68
2022/05/16 08:44:37;;;;;;;;;;;23.40;65.10;;;;;;4894292;29;19920;-69
2022/05/16 08:47:28;;;;;;;;;;;23.40;65.50;;;;;;4890403;29;20010;-68
2022/05/16 08:49:57;;;;;;;;;;;23.40;65.50;;;;;;4891848;29;19926;-66
2022/05/16 08:52:32;;;;;;;;;;;23.40;65.60;;;;;;4891866;29;19921;-65
2022/05/16 08:55:01;;;;;;;;;;;23.40;65.90;;;;;;4892072;29;20376;-66
2022/05/16 08:57:38;;;;;;;;;;;23.40;65.90;;;;;;4891987;29;20296;-66
2022/05/16 09:00:06;;;;;;;;;;;23.40;66.30;;;;;;4892324;29;20390;-65
2022/05/16 09:02:32;;;;;;;;;;;23.40;66.00;;;;;;4893437;29;19920;-66
2022/05/16 09:05:18;;;;;;;;;;;23.60;66.00;;;;;;4891907;29;19916;-68
2022/05/16 09:07:47;;;;;;;;;;;23.80;66.50;;;;;;4889971;29;19919;-65
2022/05/16 09:10:17;;;;;;;;;;;24.10;64.70;;;;;;4890713;29;20372;-68
2022/05/16 09:12:49;;;;;;;;;;;23.90;66.10;;;;;;4890968;29;20065;-69
2022/05/16 09:15:33;;;;;;;;;;;24.10;67.20;;;;;;4893648;29;20371;-69
2022/05/16 09:18:09;;;;;;;;;;;24.70;67.60;;;;;;4892582;29;19965;-68
2022/05/16 09:20:53;;;;;;;;;;;25.50;67.90;;;;;;4893749;29;20357;-69
2022/05/16 09:23:32;;;;;;;;;;;26.40;66.50;;;;;;4872369;29;20544;-69
2022/05/16 09:26:08;;;;;;;;;;;27.30;65.80;;;;;;4891645;29;19953;-68
2022/05/16 09:28:39;;;;;;;;;;;28.00;63.80;;;;;;4890921;29;20006;-68
2022/05/16 09:31:15;;;;;;;;;;;28.30;63.60;;;;;;4876732;29;20314;-68
2022/05/16 09:33:46;;;;;;;;;;;28.50;64.20;;;;;;4894506;29;19920;-69
2022/05/16 09:36:12;;;;;;;;;;;29.10;58.40;;;;;;4878777;29;19921;-68
2022/05/16 09:38:43;;;;;;;;;;;29.50;62.90;;;;;;4902236;29;19928;-69
2022/05/16 09:41:13;;;;;;;;;;;29.90;63.10;;;;;;4897288;29;19923;-69
2022/05/16 09:43:44;;;;;;;;;;;30.20;58.80;;;;;;4895905;29;19923;-69
2022/05/16 09:46:19;;;;;;;;;;;30.20;51.20;;;;;;4894957;29;19928;-67
2022/05/16 09:48:45;;;;;;;;;;;30.00;58.40;;;;;;4895853;29;20329;-69
2022/05/16 09:51:10;;;;;;;;;;;30.20;61.10;;;;;;4896059;29;19928;-67
2022/05/16 09:53:43;;;;;;;;;;;30.20;58.70;;;;;;4889579;29;20391;-69
2022/05/16 09:56:28;;;;;;;;;;;30.10;54.90;;;;;;4874095;29;19926;-67
2022/05/16 09:59:00;;;;;;;;;;;29.90;57.00;;;;;;4889970;29;19922;-67
2022/05/16 10:01:43;;;;;;;;;;;29.90;54.30;;;;;;4893948;29;19922;-68
2022/05/16 10:04:32;;;;;;;;;;;29.70;57.70;;;;;;4894892;29;19919;-67
2022/05/16 10:06:59;;;;;;;;;;;29.60;58.70;;;;;;4894778;29;19923;-67
2022/05/16 10:09:27;;;;;;;;;;;29.70;58.80;;;;;;4877885;29;19923;-68
2022/05/16 10:11:53;;;;;;;;;;;29.80;57.00;;;;;;4893862;29;20284;-69
2022/05/16 10:14:18;;;;;;;;;;;30.20;57.80;;;;;;4894867;29;19931;-69
2022/05/16 10:16:49;;;;;;;;;;;30.10;55.10;;;;;;4893730;29;19915;-67
2022/05/16 10:19:18;;;;;;;;;;;29.50;52.20;;;;;;4895916;29;20022;-67
2022/05/16 10:21:55;;;;;;;;;;;28.70;56.10;;;;;;4894369;29;19960;-68
2022/05/16 10:24:21;;;;;;;;;;;28.00;58.00;;;;;;4895993;29;19921;-68
2022/05/16 10:26:49;;;;;;;;;;;27.70;59.60;;;;;;4877668;29;19919;-68
2022/05/16 10:29:17;;;;;;;;;;;27.70;59.20;;;;;;4895624;29;19919;-68
2022/05/16 10:34:47;;;;;;;;;;;27.90;59.10;;;;;;4894185;29;19976;-67
2022/05/16 10:37:13;;;;;;;;;;;28.00;57.60;;;;;;4892698;29;19932;-68
2022/05/16 10:39:41;;;;;;;;;;;28.30;58.40;;;;;;4895498;29;19926;-68
2022/05/16 10:42:10;;;;;;;;;;;28.20;57.00;;;;;;4894058;29;20693;-69
2022/05/16 10:44:35;;;;;;;;;;;27.90;59.00;;;;;;4894817;29;19919;-68
2022/05/16 10:47:21;;;;;;;;;;;27.50;60.10;;;;;;4861370;29;19932;-68
2022/05/16 10:49:50;;;;;;;;;;;26.80;60.70;;;;;;4893792;29;19944;-69
2022/05/16 10:52:34;;;;;;;;;;;26.10;62.20;;;;;;4894212;29;21133;-68
2022/05/16 10:54:59;;;;;;;;;;;25.20;66.40;;;;;;4894845;29;19919;-67
2022/05/16 10:57:33;;;;;;;;;;;24.60;65.70;;;;;;4892941;29;19920;-69
2022/05/16 11:00:06;;;;;;;;;;;24.70;75.60;;;;;;4894605;29;19916;-68
2022/05/16 11:02:31;;;;;;;;;;;24.40;78.80;;;;;;4893894;29;20002;-68
2022/05/16 11:05:06;;;;;;;;;;;24.00;81.80;;;;;;4893369;29;19931;-69
2022/05/16 11:07:32;;;;;;;;;;;23.50;84.40;;;;;;4892929;29;19938;-68
2022/05/16 11:09:57;;;;;;;;;;;23.00;86.70;;;;;;4893150;29;19916;-68
2022/05/16 11:12:26;;;;;;;;;;;22.80;88.50;;;;;;4892287;29;19915;-68
2022/05/16 11:15:04;;;;;;;;;;;22.80;90.10;;;;;;4894882;29;19956;-68
2022/05/16 11:17:32;;;;;;;;;;;22.90;90.50;;;;;;4892884;29;19975;-69
2022/05/16 11:20:01;;;;;;;;;;;23.20;89.70;;;;;;4894104;29;20010;-69
2022/05/16 11:22:41;;;;;;;;;;;23.50;89.70;;;;;;4873325;29;19998;-69
2022/05/16 11:25:30;;;;;;;;;;;23.70;88.80;;;;;;4893016;29;19922;-70
2022/05/16 11:28:08;;;;;;;;;;;24.00;88.30;;;;;;4894586;29;19919;-70
2022/05/16 11:30:37;;;;;;;;;;;24.30;87.30;;;;;;4894013;29;19919;-69
2022/05/16 11:33:06;;;;;;;;;;;24.30;85.80;;;;;;4892208;29;20011;-69
2022/05/16 11:35:45;;;;;;;;;;;24.20;85.40;;;;;;4870591;29;19915;-70
2022/05/16 11:38:25;;;;;;;;;;;24.00;84.80;;;;;;4895187;29;19919;-69
2022/05/16 11:41:10;;;;;;;;;;;23.80;86.00;;;;;;4866165;29;21544;-69
2022/05/16 11:43:40;;;;;;;;;;;23.70;85.80;;;;;;4895501;29;19967;-68
2022/05/16 11:46:24;;;;;;;;;;;23.70;85.60;;;;;;4892826;29;20396;-69
2022/05/16 11:49:11;;;;;;;;;;;23.70;85.60;;;;;;4893984;29;19923;-69
2022/05/16 11:51:56;;;;;;;;;;;23.70;85.70;;;;;;4891958;29;19947;-69
2022/05/16 11:54:26;;;;;;;;;;;23.90;84.00;;;;;;4892749;29;20353;-69
2022/05/16 12:02:32;;;;;;;;;;;23.50;82.40;;;;;;4893846;29;19964;-69
2022/05/16 12:05:01;;;;;;;;;;;23.30;82.10;;;;;;4892298;29;19938;-69
2022/05/16 12:07:35;;;;;;;;;;;23.00;82.80;;;;;;4892936;29;20383;-69
2022/05/16 12:10:01;;;;;;;;;;;22.70;84.40;;;;;;4893812;29;19916;-69
2022/05/16 12:12:28;;;;;;;;;;;22.70;84.80;;;;;;4876815;29;20034;-69
2022/05/16 12:15:12;;;;;;;;;;;22.50;84.80;;;;;;4891954;29;20312;-69
2022/05/16 12:17:48;;;;;;;;;;;22.40;86.00;;;;;;4889705;29;20030;-69
2022/05/16 12:20:14;;;;;;;;;;;22.20;87.00;;;;;;4893729;29;20425;-68
2022/05/16 12:22:40;;;;;;;;;;;22.10;87.90;;;;;;4891628;29;19930;-69
2022/05/16 12:25:10;;;;;;;;;;;22.00;88.20;;;;;;4892761;29;19923;-69
2022/05/16 12:27:38;;;;;;;;;;;21.90;88.00;;;;;;4892459;29;19967;-69
2022/05/16 12:30:10;;;;;;;;;;;21.80;88.70;;;;;;4894829;29;20385;-69
2022/05/16 12:32:35;;;;;;;;;;;21.70;89.60;;;;;;4892361;29;20261;-69
2022/05/16 12:35:06;;;;;;;;;;;21.60;89.80;;;;;;4894028;29;19920;-70
2022/05/16 12:37:33;;;;;;;;;;;21.50;90.40;;;;;;4892483;29;20392;-70
2022/05/16 12:40:03;;;;;;;;;;;21.40;91.10;;;;;;4893897;29;19919;-69
2022/05/16 12:42:52;;;;;;;;;;;21.20;91.90;;;;;;4887632;29;19923;-69
2022/05/16 12:45:25;;;;;;;;;;;21.20;93.80;;;;;;4885167;29;20407;-70
2022/05/16 12:48:01;;;;;;;;;;;21.20;93.80;;;;;;4891378;29;19928;-70
2022/05/16 12:50:42;;;;;;;;;;;21.30;94.10;;;;;;4891693;29;19937;-70
2022/05/16 12:53:20;;;;;;;;;;;21.40;94.50;;;;;;4892889;29;19930;-70
2022/05/16 12:55:53;;;;;;;;;;;21.60;93.80;;;;;;4893837;29;19946;-70
2022/05/16 12:58:38;;;;;;;;;;;22.00;94.30;;;;;;4892572;29;19991;-70
2022/05/16 13:01:10;;;;;;;;;;;22.30;92.30;;;;;;4893679;29;20360;-69
2022/05/16 13:03:45;;;;;;;;;;;22.50;90.90;;;;;;4892391;29;19919;-69
2022/05/16 13:06:23;;;;;;;;;;;22.60;91.20;;;;;;4894217;29;19935;-70
2022/05/16 13:08:53;;;;;;;;;;;22.70;90.10;;;;;;4889060;29;19971;-70
2022/05/16 13:11:28;;;;;;;;;;;22.70;90.00;;;;;;4897376;29;20272;-71
2022/05/16 13:14:10;;;;;;;;;;;22.70;88.50;;;;;;4884180;29;19911;-71
2022/05/16 13:16:38;;;;;;;;;;;22.80;88.40;;;;;;4875729;29;20345;-71
2022/05/16 13:19:07;;;;;;;;;;;22.90;87.30;;;;;;4895617;29;19916;-72
2022/05/16 13:21:50;;;;;;;;;;;23.00;86.10;;;;;;4895996;29;19915;-70
2022/05/16 13:24:18;;;;;;;;;;;22.90;84.90;;;;;;4895525;29;19964;-71
2022/05/16 13:29:34;;;;;;;;;;;22.80;85.40;;;;;;4896057;29;20023;-71
2022/05/16 13:32:10;;;;;;;;;;;23.10;84.60;;;;;;4893246;29;19967;-72
2022/05/16 13:34:43;;;;;;;;;;;23.20;83.70;;;;;;4894060;29;20391;-71
2022/05/16 13:37:10;;;;;;;;;;;23.30;82.10;;;;;;4896862;29;19983;-70
2022/05/16 13:39:38;;;;;;;;;;;23.10;81.10;;;;;;4897566;29;19919;-69
2022/05/16 13:42:04;;;;;;;;;;;22.80;81.70;;;;;;4894138;29;20003;-69
2022/05/16 13:44:37;;;;;;;;;;;22.60;82.70;;;;;;4896047;29;20014;-69
2022/05/16 13:47:04;;;;;;;;;;;22.50;83.80;;;;;;4879883;29;19928;-69
2022/05/16 13:49:30;;;;;;;;;;;22.40;83.80;;;;;;4894412;29;19977;-69
2022/05/16 13:51:56;;;;;;;;;;;22.40;84.30;;;;;;4863419;29;19922;-70
2022/05/16 13:54:26;;;;;;;;;;;22.40;84.10;;;;;;4899298;29;19915;-69
2022/05/16 13:56:55;;;;;;;;;;;22.50;83.60;;;;;;4895156;29;19920;-70
2022/05/16 13:59:22;;;;;;;;;;;22.60;82.20;;;;;;4901749;29;19922;-69
2022/05/16 14:01:53;;;;;;;;;;;22.80;82.80;;;;;;4881884;29;19954;-69
2022/05/16 14:04:21;;;;;;;;;;;23.00;81.40;;;;;;4894598;29;19919;-69
2022/05/16 14:06:50;;;;;;;;;;;23.00;80.60;;;;;;4893887;29;19929;-70
2022/05/16 14:09:24;;;;;;;;;;;23.00;80.60;;;;;;4898915;29;19915;-69
2022/05/16 14:11:51;;;;;;;;;;;23.00;80.10;;;;;;4896890;29;19923;-69
2022/05/16 14:14:19;;;;;;;;;;;22.90;81.60;;;;;;4900347;29;19919;-69
2022/05/16 14:16:50;;;;;;;;;;;22.80;81.00;;;;;;4894844;29;19980;-71
2022/05/16 14:19:28;;;;;;;;;;;22.70;81.70;;;;;;4894150;29;19919;-72
2022/05/16 14:22:07;;;;;;;;;;;22.80;81.50;;;;;;4898470;29;19934;-71
2022/05/16 14:24:49;;;;;;;;;;;22.80;80.30;;;;;;4895349;29;19966;-71
2022/05/16 14:27:37;;;;;;;;;;;22.80;80.30;;;;;;4897395;29;19962;-73
2022/05/16 14:30:16;;;;;;;;;;;22.70;80.10;;;;;;4897163;29;19919;-71
2022/05/16 14:32:43;;;;;;;;;;;22.50;80.40;;;;;;4896878;29;19923;-71
2022/05/16 14:35:10;;;;;;;;;;;22.50;81.10;;;;;;4896680;29;19924;-71
2022/05/16 14:37:37;;;;;;;;;;;22.40;81.10;;;;;;4896022;29;19919;-70
2022/05/16 14:40:03;;;;;;;;;;;22.40;82.30;;;;;;4877434;29;20831;-70
2022/05/16 14:42:33;;;;;;;;;;;22.50;81.50;;;;;;4893593;29;19915;-70
2022/05/16 14:48:16;;;;;;;;;;;22.50;81.10;;;;;;4857324;29;20773;-70
2022/05/16 14:50:41;;;;;;;;;;;22.50;80.50;;;;;;4894054;29;19920;-72
2022/05/16 14:53:12;;;;;;;;;;;22.50;80.60;;;;;;4897580;29;20474;-71
2022/05/16 14:55:39;;;;;;;;;;;22.50;80.80;;;;;;4892575;29;19927;-70
2022/05/16 14:58:06;;;;;;;;;;;22.60;80.40;;;;;;4893391;29;20006;-69
2022/05/16 15:06:01;;;;;;;;;;;22.40;81.20;;;;;;4894826;29;19923;-71
2022/05/16 15:08:31;;;;;;;;;;;22.40;81.10;;;;;;4891522;29;19924;-72
2022/05/16 15:10:57;;;;;;;;;;;22.40;80.80;;;;;;4895898;29;19922;-71
2022/05/16 15:13:22;;;;;;;;;;;22.30;81.00;;;;;;4894927;29;19919;-72
2022/05/16 15:15:48;;;;;;;;;;;22.30;81.10;;;;;;4895414;29;19959;-71
2022/05/16 15:18:14;;;;;;;;;;;22.30;81.10;;;;;;4893247;29;19930;-70
2022/05/16 15:20:40;;;;;;;;;;;22.30;80.90;;;;;;4876143;29;19962;-71
2022/05/16 15:23:06;;;;;;;;;;;22.30;80.70;;;;;;4876855;29;19924;-73
2022/05/16 15:25:32;;;;;;;;;;;22.30;80.30;;;;;;4888608;29;20522;-69
2022/05/16 15:27:58;;;;;;;;;;;22.30;80.50;;;;;;4894225;29;19970;-72
2022/05/16 15:30:25;;;;;;;;;;;22.20;80.40;;;;;;4892960;29;19951;-72
2022/05/16 15:32:51;;;;;;;;;;;22.10;80.70;;;;;;4893568;29;19920;-72
2022/05/16 15:35:17;;;;;;;;;;;22.00;81.30;;;;;;4893660;29;19925;-71
2022/05/16 15:37:43;;;;;;;;;;;21.90;81.90;;;;;;4892330;29;20002;-71
2022/05/16 15:40:09;;;;;;;;;;;21.90;81.90;;;;;;4886433;29;20312;-71
2022/05/16 15:42:34;;;;;;;;;;;21.80;82.30;;;;;;4892520;29;19923;-70
2022/05/16 15:45:01;;;;;;;;;;;21.70;83.10;;;;;;4893587;29;20068;-70
2022/05/16 15:47:29;;;;;;;;;;;21.60;83.30;;;;;;4892202;29;19994;-70
2022/05/16 15:49:55;;;;;;;;;;;21.60;83.80;;;;;;4894055;29;19920;-71
2022/05/16 15:52:22;;;;;;;;;;;21.60;84.00;;;;;;4891674;29;19915;-72
2022/05/16 15:54:48;;;;;;;;;;;21.60;83.90;;;;;;4894298;29;19921;-68
2022/05/16 15:57:13;;;;;;;;;;;21.60;83.90;;;;;;4892691;29;19943;-72
2022/05/16 15:59:39;;;;;;;;;;;21.60;83.70;;;;;;4892068;29;20186;-70
2022/05/16 16:02:16;;;;;;;;;;;21.60;84.00;;;;;;4874258;29;19915;-68
2022/05/16 16:10:12;;;;;;;;;;;21.60;83.50;;;;;;4870799;29;19931;-70
2022/05/16 16:12:37;;;;;;;;;;;21.50;84.10;;;;;;4890776;29;19924;-69
2022/05/16 16:15:03;;;;;;;;;;;21.50;84.10;;;;;;4892158;29;19931;-68
2022/05/16 16:17:29;;;;;;;;;;;21.40;84.40;;;;;;4893473;29;19938;-69
2022/05/16 16:19:55;;;;;;;;;;;21.30;85.00;;;;;;4892895;29;19955;-71
2022/05/16 16:22:20;;;;;;;;;;;21.40;85.30;;;;;;4890881;29;20361;-71
2022/05/16 16:24:46;;;;;;;;;;;21.30;85.50;;;;;;4893962;29;20360;-71
2022/05/16 16:27:11;;;;;;;;;;;21.40;85.40;;;;;;4895790;29;19924;-70
2022/05/16 16:29:37;;;;;;;;;;;21.40;85.30;;;;;;4877866;29;20343;-70
2022/05/16 16:32:04;;;;;;;;;;;21.30;85.50;;;;;;4893053;29;19919;-73
2022/05/16 16:34:30;;;;;;;;;;;21.30;85.70;;;;;;4893290;29;20376;-72
2022/05/16 16:36:56;;;;;;;;;;;21.30;85.90;;;;;;4892949;29;19922;-71
2022/05/16 16:39:22;;;;;;;;;;;21.30;86.20;;;;;;4891432;29;20023;-69
2022/05/16 16:41:47;;;;;;;;;;;21.30;86.10;;;;;;4891985;29;19916;-72
2022/05/16 16:44:15;;;;;;;;;;;21.30;86.00;;;;;;4895527;29;19915;-69
2022/05/16 16:46:42;;;;;;;;;;;21.20;86.30;;;;;;4892634;29;19927;-71
2022/05/16 16:49:08;;;;;;;;;;;21.10;86.50;;;;;;4889813;29;20300;-70
2022/05/16 16:57:29;;;;;;;;;;;21.20;87.10;;;;;;4891235;29;19935;-71
2022/05/16 16:59:56;;;;;;;;;;;21.20;87.10;;;;;;4893635;29;20014;-70
2022/05/16 17:02:24;;;;;;;;;;;21.30;86.40;;;;;;4891865;29;19927;-70
2022/05/16 17:04:55;;;;;;;;;;;21.40;86.30;;;;;;4893259;29;19931;-73
2022/05/16 17:07:21;;;;;;;;;;;21.50;86.10;;;;;;4891790;29;19927;-71
2022/05/16 17:09:47;;;;;;;;;;;21.60;85.70;;;;;;4891971;29;19919;-69
2022/05/16 17:12:13;;;;;;;;;;;21.70;85.00;;;;;;4891699;29;19927;-71
2022/05/16 17:14:38;;;;;;;;;;;21.70;84.60;;;;;;4873585;29;20010;-72
2022/05/16 17:17:04;;;;;;;;;;;21.70;84.40;;;;;;4890385;29;19919;-71
2022/05/16 17:19:31;;;;;;;;;;;21.70;84.20;;;;;;4889796;29;19924;-69
2022/05/16 17:22:02;;;;;;;;;;;21.60;84.30;;;;;;4875931;29;19916;-70
2022/05/16 17:24:28;;;;;;;;;;;21.60;84.50;;;;;;4887865;29;19924;-69
2022/05/16 17:26:53;;;;;;;;;;;21.50;84.90;;;;;;4891960;29;20027;-70
2022/05/16 17:29:19;;;;;;;;;;;21.40;85.10;;;;;;4891775;29;19924;-69
2022/05/16 17:31:47;;;;;;;;;;;21.30;85.50;;;;;;4889289;29;19924;-69
2022/05/16 17:34:13;;;;;;;;;;;21.30;85.60;;;;;;4890217;29;19973;-70
2022/05/16 17:36:38;;;;;;;;;;;21.20;85.70;;;;;;4891863;29;19951;-70
2022/05/16 17:39:07;;;;;;;;;;;21.10;86.20;;;;;;4891554;29;19915;-68
2022/05/16 17:41:33;;;;;;;;;;;21.00;86.40;;;;;;4876112;29;19958;-68
2022/05/16 17:44:02;;;;;;;;;;;21.00;86.80;;;;;;4893354;29;20357;-70